Frenchville, ME

9:05 AM EST on December 11, 2016 (GMT -0500)
K1FTK | | Change Station
Active Advisory: Winter Weather Advisory Active Notice: Public Information Statement

Elev 825 ft 47.25 °N, 68.35 °W | Updated 5 minutes ago

Clear
Clear
2.9 °F
Feels Like 3 °F
N
0.0
Wind Variable Wind from West
Gusts 0.0 mph

Today
High -- | Low -- °F
--% Chance of Precip.
Yesterday
High -- | Low -- °F
Precip. -- in
Pressure 30.35 in
Visibility 10.0 miles
Clouds Clear
Windchill 3 °F
Dew Point 0 °F
Humidity 89%
Rainfall 0.00 in
Snow Depth Not available.
7:10 AM 3:43 PM
Waxing Gibbous, 91% visible
METAR KFVE 111353Z AUTO 27010KT 10SM CLR M13/M17 A3029 RMK AO2 SLP278 T11331172
Pressure 30.35 in
Visibility 10.0 miles
Clouds Clear
Windchill 3 °F
Dew Point 0 °F
Humidity 89%
Rainfall 0.00 in
Snow Depth Not available.
7:10 AM 3:43 PM
Waxing Gibbous, 91% visible
METAR KFVE 111353Z AUTO 27010KT 10SM CLR M13/M17 A3029 RMK AO2 SLP278 T11331172

10-Day Weather Forecast

Almanac

Astronomy

Dec. 11, 2016 Rise Set
Actual Time
Civil Twilight
Nautical Twilight
Astronomical Twilight
Moon
Length of Visible Light
Length of Day
Tomorrow will be .
, % of the Moon is Illuminated

Today's Extremes

State Highs State Lows

Community

WunderPhotos

Upload Photos

1,956,710 photos uploaded!

WunderBlog® & News

Nearby

Air Quality

  Air Quality AQ Index Pollutant
Not available.

Snow Depth

Station Depth Elevation

Earthquake Activity

City Distance Mag. Time & Date
Minimum magnitude displayed is 2.5.

Coastal Water Temperatures

Place Temperature

Stations

Nearby Weather Stations

Station Location Temp. Windchill Dew Point Humidity Wind Precip. Elev Updated Type
                   

Watches & Warnings

Winter Weather Advisory
Issued: 3:12 AM EST Dec. 11, 2016 – National Weather Service

... Winter Weather Advisory in effect from 7 am to 8 PM EST
Monday...

The National Weather Service in Caribou has issued a Winter
Weather Advisory for snow... which is in effect from 7 am to 8 PM
EST Monday.

* Locations... central and northern Maine.

* Hazard types... snow.

* Snow accumulations... 4 to 8 inches.

* Timing... early Monday morning through Monday afternoon.

* Impacts... moderate impact. Heavy snowfall will result in
difficult driving conditions.

* Winds... east 10 to 15 mph with gusts up to 20 mph.

* Temperatures... 6 to 22 above.

* Visibilities... one quarter to one half mile at times.

Precautionary/preparedness actions...

A Winter Weather Advisory means that periods of snow... sleet... or
freezing rain will cause travel difficulties. Be prepared for
slippery roads and limited visibilities... and use caution while
driving.



Mcb